createdAt,value
2022-11-05T00:01:08.582Z,94577.41
2022-11-05T00:03:53.876Z,94579.84
2022-11-05T00:06:39.552Z,94562.75
2022-11-05T00:09:28.134Z,94563.66
2022-11-05T00:12:13.313Z,94565.00
2022-11-05T00:14:58.525Z,94583.41
2022-11-05T00:17:25.514Z,94578.16
2022-11-05T00:19:52.198Z,94574.84
2022-11-05T00:22:37.701Z,94569.84
2022-11-05T00:25:17.378Z,94565.44
2022-11-05T00:27:49.166Z,94577.84
2022-11-05T00:30:18.648Z,94571.63
2022-11-05T00:32:47.670Z,94577.19
2022-11-05T00:35:15.259Z,94557.16
2022-11-05T00:37:48.733Z,94565.25
2022-11-05T00:40:16.563Z,94562.59
2022-11-05T00:43:22.015Z,94549.66
2022-11-05T00:45:48.710Z,94562.91
2022-11-05T00:48:34.259Z,94546.84
2022-11-05T00:51:01.137Z,94555.78
2022-11-05T00:53:27.990Z,94554.94
2022-11-05T00:55:54.825Z,94536.72
2022-11-05T00:58:22.739Z,94555.25
2022-11-05T01:00:54.563Z,94546.59
2022-11-05T01:03:23.585Z,94547.63
2022-11-05T01:05:53.312Z,94554.59
2022-11-05T01:08:22.077Z,94547.78
2022-11-05T01:10:51.853Z,94536.56
2022-11-05T01:13:21.751Z,94533.91
2022-11-05T01:15:50.936Z,94522.19
2022-11-05T01:18:19.363Z,94522.28
2022-11-05T01:20:46.417Z,94525.56
2022-11-05T01:23:13.971Z,94520.66
2022-11-05T01:25:42.075Z,94515.13
2022-11-05T01:28:09.750Z,94525.44
2022-11-05T01:30:37.598Z,94524.16
2022-11-05T01:33:04.400Z,94521.91
2022-11-05T01:35:31.048Z,94529.00
2022-11-05T01:37:58.046Z,94519.44
2022-11-05T01:40:25.884Z,94507.78
2022-11-05T01:42:52.884Z,94507.69
2022-11-05T01:45:27.931Z,94485.72
2022-11-05T01:48:03.032Z,94496.13
2022-11-05T01:50:39.066Z,94489.09
2022-11-05T01:53:15.191Z,94457.59
2022-11-05T01:55:51.421Z,94494.69
2022-11-05T01:58:22.929Z,94497.13
2022-11-05T02:00:49.709Z,94482.97
2022-11-05T02:03:18.075Z,94476.94
2022-11-05T02:05:45.761Z,94474.38
2022-11-05T02:08:22.532Z,94485.56
2022-11-05T02:10:49.886Z,94481.22
2022-11-05T02:13:16.702Z,94459.72
2022-11-05T02:16:13.833Z,94481.69
2022-11-05T02:19:05.148Z,94482.25
2022-11-05T02:21:56.072Z,94489.31
2022-11-05T02:24:53.309Z,94481.34
2022-11-05T02:27:48.301Z,94475.44
2022-11-05T02:30:33.752Z,94475.66
2022-11-05T02:33:34.474Z,94479.22
2022-11-05T02:36:13.509Z,94488.47
2022-11-05T02:38:59.556Z,94488.19
2022-11-05T02:41:52.673Z,94487.19
2022-11-05T02:44:31.268Z,94481.56
2022-11-05T02:47:04.254Z,94487.88
2022-11-05T02:50:14.628Z,94486.19
2022-11-05T02:52:58.905Z,94477.53
2022-11-05T02:55:32.689Z,94476.09
2022-11-05T02:58:02.190Z,94479.66
2022-11-05T03:00:48.376Z,94483.03
2022-11-05T03:03:28.905Z,94469.91
2022-11-05T03:06:16.622Z,94478.69
2022-11-05T03:08:55.570Z,94473.91
2022-11-05T03:11:25.592Z,94485.16
2022-11-05T03:14:21.548Z,94489.75
2022-11-05T03:17:12.893Z,94490.97
2022-11-05T03:19:53.782Z,94470.81
2022-11-05T03:22:37.077Z,94483.09
2022-11-05T03:25:11.833Z,94466.41
2022-11-05T03:27:43.262Z,94485.34
2022-11-05T03:30:13.176Z,94484.59
2022-11-05T03:32:46.407Z,94461.63
2022-11-05T03:35:26.005Z,94503.72
2022-11-05T03:37:58.473Z,94473.69
2022-11-05T03:40:26.323Z,94509.91
2022-11-05T03:42:57.163Z,94509.91
2022-11-05T03:45:36.303Z,94528.44
2022-11-05T03:48:05.597Z,94533.31
2022-11-05T03:51:13.975Z,94524.34
2022-11-05T03:53:50.140Z,94529.09
2022-11-05T03:56:31.742Z,94536.22
2022-11-05T03:59:00.833Z,94524.88
2022-11-05T04:01:29.121Z,94534.00
2022-11-05T04:03:56.100Z,94532.09
2022-11-05T04:06:41.804Z,94522.91
2022-11-05T04:09:28.713Z,94499.69
2022-11-05T04:12:14.018Z,94538.66
2022-11-05T04:14:40.748Z,94491.34
2022-11-05T04:17:07.487Z,94537.25
2022-11-05T04:19:57.242Z,94537.25
2022-11-05T04:22:44.042Z,94532.91
2022-11-05T04:25:11.502Z,94521.72
2022-11-05T04:27:39.494Z,94529.88
2022-11-05T04:30:18.957Z,94537.53
2022-11-05T04:33:13.038Z,94537.72
2022-11-05T04:35:47.713Z,94547.31
2022-11-05T04:38:17.733Z,94532.31
2022-11-05T04:40:45.232Z,94547.22
2022-11-05T04:43:18.923Z,94555.88
2022-11-05T04:45:46.172Z,94551.44
2022-11-05T04:48:13.079Z,94549.56
2022-11-05T04:50:39.936Z,94549.00
2022-11-05T04:53:06.807Z,94546.75
2022-11-05T04:55:33.577Z,94555.25
2022-11-05T04:58:00.159Z,94557.91
2022-11-05T05:00:27.019Z,94539.97
2022-11-05T05:02:53.781Z,94524.06
2022-11-05T05:05:22.648Z,94545.28
2022-11-05T05:07:49.259Z,94541.81
2022-11-05T05:10:16.003Z,94514.03
2022-11-05T05:12:42.688Z,94558.19
2022-11-05T05:15:09.443Z,94572.84
2022-11-05T05:17:36.140Z,94563.22
2022-11-05T05:20:21.271Z,94551.78
2022-11-05T05:22:55.343Z,94572.31
2022-11-05T05:25:23.938Z,94559.19
2022-11-05T05:27:50.853Z,94570.44
2022-11-05T05:30:17.976Z,94595.06
2022-11-05T05:32:45.560Z,94589.25
2022-11-05T05:35:12.295Z,94604.41
2022-11-05T05:37:39.550Z,94597.63
2022-11-05T05:40:06.898Z,94530.81
2022-11-05T05:42:37.464Z,94598.41
2022-11-05T05:45:07.299Z,94554.88
2022-11-05T05:47:34.195Z,94603.31
2022-11-05T05:50:00.854Z,94584.75
2022-11-05T05:52:27.571Z,94600.19
2022-11-05T05:54:54.175Z,94614.03
2022-11-05T05:57:21.039Z,94589.38
2022-11-05T05:59:47.797Z,94597.72
2022-11-05T06:02:14.622Z,94611.41
2022-11-05T06:04:41.695Z,94596.75
2022-11-05T06:07:08.485Z,94601.59
2022-11-05T06:09:35.373Z,94590.25
2022-11-05T06:12:02.220Z,94554.91
2022-11-05T06:14:28.748Z,94600.88
2022-11-05T06:16:55.564Z,94586.84
2022-11-05T06:19:22.289Z,94593.69
2022-11-05T06:21:49.199Z,94595.69
2022-11-05T06:24:16.469Z,94590.56
2022-11-05T06:26:43.538Z,94585.94
2022-11-05T06:29:12.684Z,94577.34
2022-11-05T06:31:39.764Z,94543.22
2022-11-05T06:34:06.566Z,94502.72
2022-11-05T06:36:33.675Z,94523.34
2022-11-05T06:39:00.355Z,94495.00
2022-11-05T06:41:27.220Z,94498.59
2022-11-05T06:43:53.834Z,94592.59
2022-11-05T06:46:20.676Z,94601.22
2022-11-05T06:48:47.519Z,94597.06
2022-11-05T06:51:14.588Z,94587.44
2022-11-05T06:53:41.135Z,94595.50
2022-11-05T06:56:08.199Z,94591.78
2022-11-05T06:58:34.939Z,94590.72
2022-11-05T07:01:11.469Z,94571.03
2022-11-05T07:09:28.711Z,94578.63
2022-11-05T07:11:55.759Z,94578.38
2022-11-05T07:14:22.632Z,94564.59
2022-11-05T07:16:49.747Z,94570.25
2022-11-05T07:19:16.556Z,94564.06
2022-11-05T07:21:43.129Z,94552.81
2022-11-05T07:24:17.128Z,94586.06
2022-11-05T07:26:43.877Z,94578.41
2022-11-05T07:29:10.598Z,94581.97
2022-11-05T07:31:37.405Z,94590.41
2022-11-05T07:34:24.423Z,94582.22
2022-11-05T07:36:51.253Z,94583.25
2022-11-05T07:39:18.108Z,94576.38
2022-11-05T07:41:44.778Z,94575.78
2022-11-05T07:44:11.907Z,94570.19
2022-11-05T07:46:38.679Z,94556.78
2022-11-05T07:49:05.784Z,94559.63
2022-11-05T07:51:32.550Z,94563.22
2022-11-05T07:53:59.301Z,94561.44
2022-11-05T07:56:27.119Z,94563.44
2022-11-05T07:58:54.130Z,94528.28
2022-11-05T08:01:21.112Z,94553.69
2022-11-05T08:03:47.943Z,94546.44
2022-11-05T08:06:15.246Z,94552.19
2022-11-05T08:08:42.424Z,94541.38
2022-11-05T08:11:11.652Z,94556.81
2022-11-05T08:13:41.111Z,94536.81
2022-11-05T08:16:08.152Z,94523.28
2022-11-05T08:18:35.203Z,94546.19
2022-11-05T08:21:04.404Z,94541.66
2022-11-05T08:23:32.485Z,94538.78
2022-11-05T08:25:59.479Z,94545.81
2022-11-05T08:28:26.622Z,94546.22
2022-11-05T08:30:55.844Z,94555.28
2022-11-05T08:33:24.840Z,94551.00
2022-11-05T08:35:51.902Z,94553.00
2022-11-05T08:38:20.204Z,94532.84
2022-11-05T08:40:57.766Z,94551.59
2022-11-05T08:43:24.704Z,94545.19
2022-11-05T08:45:51.491Z,94527.94
2022-11-05T08:48:19.480Z,94532.94
2022-11-05T08:50:48.386Z,94537.84
2022-11-05T08:53:16.285Z,94533.16
2022-11-05T08:55:44.173Z,94547.31
2022-11-05T08:58:15.284Z,94517.50
2022-11-05T09:00:43.342Z,94551.28
2022-11-05T09:03:10.937Z,94532.44
2022-11-05T09:05:40.031Z,94545.13
2022-11-05T09:08:18.462Z,94539.78
2022-11-05T09:10:46.690Z,94524.53
2022-11-05T09:13:18.778Z,94517.53
2022-11-05T09:15:48.392Z,94517.44
2022-11-05T09:18:16.239Z,94536.81
2022-11-05T09:20:43.638Z,94531.34
2022-11-05T09:23:15.015Z,94518.78
2022-11-05T09:25:42.343Z,94524.41
2022-11-05T09:28:23.988Z,94489.16
2022-11-05T09:30:53.029Z,94516.88
2022-11-05T09:36:16.632Z,94502.91
2022-11-05T09:38:43.739Z,94506.69
2022-11-05T09:41:23.889Z,94507.47
2022-11-05T09:44:01.694Z,94503.41
2022-11-05T09:46:48.672Z,94496.00
2022-11-05T09:49:48.181Z,94520.25
2022-11-05T09:52:28.161Z,94516.28
2022-11-05T09:54:56.319Z,94510.75
2022-11-05T09:57:35.521Z,94515.84
2022-11-05T10:00:06.922Z,94504.50
2022-11-05T10:02:50.588Z,94487.41
2022-11-05T10:05:19.175Z,94514.69
2022-11-05T10:07:53.579Z,94509.31
2022-11-05T10:10:43.806Z,94500.88
2022-11-05T10:13:20.598Z,94496.84
2022-11-05T10:15:59.110Z,94496.16
2022-11-05T10:18:35.884Z,94485.28
2022-11-05T10:21:03.425Z,94472.00
2022-11-05T10:23:30.698Z,94487.50
2022-11-05T10:26:03.477Z,94494.75
2022-11-05T10:28:33.693Z,94477.00
2022-11-05T10:36:57.165Z,94476.56
2022-11-05T10:39:27.898Z,94475.81
2022-11-05T10:42:42.540Z,94499.44
2022-11-05T10:45:18.244Z,94483.56
2022-11-05T10:47:44.927Z,94483.34
2022-11-05T10:50:15.904Z,94479.31
2022-11-05T10:53:06.985Z,94486.03
2022-11-05T10:55:38.076Z,94468.41
2022-11-05T10:58:32.812Z,94477.00
2022-11-05T11:00:59.974Z,94472.75
2022-11-05T11:03:37.942Z,94468.00
2022-11-05T11:06:12.947Z,94477.91
2022-11-05T11:08:43.676Z,94449.84
2022-11-05T11:11:13.161Z,94466.25
2022-11-05T11:14:06.981Z,94443.34
2022-11-05T11:16:39.858Z,94458.19
2022-11-05T11:19:25.783Z,94436.22
2022-11-05T11:22:04.412Z,94450.91
2022-11-05T11:24:38.063Z,94450.38
2022-11-05T11:27:10.358Z,94446.59
2022-11-05T11:29:44.011Z,94442.34
2022-11-05T11:32:17.710Z,94422.44
2022-11-05T11:34:47.036Z,94440.66
2022-11-05T11:37:19.779Z,94444.22
2022-11-05T11:39:55.149Z,94442.81
2022-11-05T11:42:26.398Z,94442.28
2022-11-05T11:44:53.575Z,94404.84
2022-11-05T11:47:22.227Z,94443.72
2022-11-05T11:49:54.701Z,94442.88
2022-11-05T11:52:31.235Z,94450.34
2022-11-05T11:55:28.198Z,94437.31
2022-11-05T11:58:06.347Z,94429.84
2022-11-05T12:00:41.364Z,94434.28
2022-11-05T12:03:41.885Z,94435.47
2022-11-05T12:06:22.414Z,94434.84
2022-11-05T12:09:32.811Z,94424.06
2022-11-05T12:12:07.784Z,94436.94
2022-11-05T12:14:46.063Z,94435.66
2022-11-05T12:17:43.595Z,94430.38
2022-11-05T12:20:56.944Z,94426.66
2022-11-05T12:23:49.531Z,94437.44
2022-11-05T12:26:34.156Z,94420.41
2022-11-05T12:29:42.683Z,94417.06
2022-11-05T12:32:28.200Z,94423.47
2022-11-05T12:35:01.921Z,94415.63
2022-11-05T12:37:53.317Z,94415.72
2022-11-05T12:40:54.280Z,94425.56
2022-11-05T12:43:36.470Z,94424.22
2022-11-05T12:46:08.899Z,94430.47
2022-11-05T12:48:47.569Z,94423.66
2022-11-05T12:51:28.476Z,94430.25
2022-11-05T12:54:23.430Z,94418.56
2022-11-05T12:56:58.111Z,94405.81
2022-11-05T12:59:28.790Z,94411.22
2022-11-05T13:02:12.739Z,94395.75
2022-11-05T13:05:01.497Z,94410.31
2022-11-05T13:07:33.817Z,94416.66
2022-11-05T13:10:13.806Z,94421.97
2022-11-05T13:12:42.648Z,94413.31
2022-11-05T13:15:29.681Z,94415.03
2022-11-05T13:18:05.238Z,94423.25
2022-11-05T13:20:37.858Z,94404.84
2022-11-05T13:23:26.261Z,94413.09
2022-11-05T13:25:58.299Z,94419.72
2022-11-05T13:29:00.261Z,94425.44
2022-11-05T13:31:33.363Z,94417.03
2022-11-05T13:34:05.262Z,94418.09
2022-11-05T13:37:06.472Z,94426.16
2022-11-05T13:39:55.475Z,94439.88
2022-11-05T13:43:03.780Z,94405.31
2022-11-05T13:46:00.121Z,94433.59
2022-11-05T13:49:09.337Z,94434.06
2022-11-05T13:51:59.471Z,94432.66
2022-11-05T13:54:45.952Z,94437.28
2022-11-05T13:57:31.378Z,94430.50
2022-11-05T14:00:11.756Z,94434.81
2022-11-05T14:02:47.117Z,94435.03
2022-11-05T14:05:38.898Z,94434.59
2022-11-05T14:08:20.575Z,94414.25
2022-11-05T14:11:00.169Z,94412.78
2022-11-05T14:13:38.029Z,94429.44
2022-11-05T14:16:09.291Z,94427.31
2022-11-05T14:18:38.336Z,94434.34
2022-11-05T14:21:07.196Z,94430.56
2022-11-05T14:23:40.634Z,94443.34
2022-11-05T14:26:28.739Z,94437.75
2022-11-05T14:29:04.707Z,94442.78
2022-11-05T14:34:44.068Z,94438.25
2022-11-05T14:37:13.969Z,94440.00
2022-11-05T14:39:44.879Z,94439.16
2022-11-05T14:42:25.269Z,94435.56
2022-11-05T14:45:24.551Z,94441.06
2022-11-05T14:47:58.059Z,94436.91
2022-11-05T14:50:36.636Z,94432.13
2022-11-05T14:53:11.463Z,94440.22
2022-11-05T14:55:44.331Z,94443.44
2022-11-05T14:58:25.978Z,94438.00
2022-11-05T15:00:54.172Z,94445.78
2022-11-05T15:03:32.383Z,94434.53
2022-11-05T15:06:08.586Z,94437.09
2022-11-05T15:09:05.924Z,94429.94
2022-11-05T15:11:46.697Z,94423.69
2022-11-05T15:14:20.762Z,94432.78
2022-11-05T15:16:54.893Z,94432.47
2022-11-05T15:19:27.540Z,94441.28
2022-11-05T15:21:58.527Z,94431.13
2022-11-05T15:24:28.451Z,94437.91
2022-11-05T15:27:13.844Z,94423.97
2022-11-05T15:29:41.170Z,94436.09
2022-11-05T15:32:17.920Z,94429.41
2022-11-05T15:34:57.437Z,94437.91
2022-11-05T15:37:27.089Z,94421.22
2022-11-05T15:39:55.785Z,94413.50
2022-11-05T15:42:25.646Z,94442.41
2022-11-05T15:44:54.959Z,94434.72
2022-11-05T15:47:29.028Z,94446.19
2022-11-05T15:50:19.789Z,94436.22
2022-11-05T15:52:54.090Z,94441.72
2022-11-05T15:55:28.585Z,94440.72
2022-11-05T15:58:07.060Z,94444.72
2022-11-05T16:00:36.923Z,94445.47
2022-11-05T16:03:19.168Z,94442.00
2022-11-05T16:05:47.650Z,94438.97
2022-11-05T16:08:24.911Z,94436.97
2022-11-05T16:10:57.776Z,94433.25
2022-11-05T16:13:33.442Z,94438.97
2022-11-05T16:16:04.527Z,94440.94
2022-11-05T16:18:42.622Z,94448.44
2022-11-05T16:21:17.687Z,94447.19
2022-11-05T16:23:53.496Z,94429.50
2022-11-05T16:29:26.044Z,94464.63
2022-11-05T16:31:55.414Z,94459.63
2022-11-05T16:34:31.895Z,94466.09
2022-11-05T16:36:59.740Z,94446.41
2022-11-05T16:39:26.889Z,94456.84
2022-11-05T16:41:53.910Z,94459.34
2022-11-05T16:44:21.499Z,94450.09
2022-11-05T16:46:50.347Z,94461.53
2022-11-05T16:49:18.060Z,94453.81
2022-11-05T16:51:45.248Z,94472.25
2022-11-05T16:54:12.179Z,94474.50
2022-11-05T16:56:40.271Z,94467.47
2022-11-05T16:59:11.317Z,94457.72
2022-11-05T17:01:41.297Z,94467.72
2022-11-05T17:04:11.408Z,94455.22
2022-11-05T17:06:41.258Z,94467.19
2022-11-05T17:09:08.548Z,94442.97
2022-11-05T17:11:35.592Z,94467.16
2022-11-05T17:14:04.422Z,94457.50
2022-11-05T17:16:32.452Z,94456.03
2022-11-05T17:19:02.106Z,94471.72
2022-11-05T17:21:29.226Z,94471.72
2022-11-05T17:23:57.738Z,94471.22
2022-11-05T17:26:25.095Z,94473.47
2022-11-05T17:28:54.148Z,94472.22
2022-11-05T17:31:21.042Z,94462.00
2022-11-05T17:33:50.886Z,94452.34
2022-11-05T17:36:17.891Z,94470.00
2022-11-05T17:38:44.833Z,94468.75
2022-11-05T17:41:20.628Z,94468.25
2022-11-05T17:43:48.295Z,94473.50
2022-11-05T17:46:17.516Z,94458.28
2022-11-05T17:48:46.289Z,94448.06
2022-11-05T17:51:17.943Z,94451.56
2022-11-05T17:53:45.934Z,94467.72
2022-11-05T17:56:26.169Z,94453.03
2022-11-05T17:58:55.814Z,94474.41
2022-11-05T18:01:29.142Z,94470.19
2022-11-05T18:03:56.419Z,94459.88
2022-11-05T18:06:23.658Z,94478.19
2022-11-05T18:08:50.699Z,94491.13
2022-11-05T18:11:17.880Z,94487.09
2022-11-05T18:13:44.969Z,94469.63
2022-11-05T18:16:12.149Z,94479.31
2022-11-05T18:18:41.851Z,94475.97
2022-11-05T18:21:08.856Z,94480.63
2022-11-05T18:23:36.117Z,94473.16
2022-11-05T18:26:09.889Z,94475.03
2022-11-05T18:28:37.925Z,94457.78
2022-11-05T18:31:08.285Z,94457.22
2022-11-05T18:33:35.430Z,94478.09
2022-11-05T18:36:02.594Z,94469.56
2022-11-05T18:38:31.250Z,94483.00
2022-11-05T18:40:58.190Z,94481.22
2022-11-05T18:43:25.126Z,94475.69
2022-11-05T18:45:56.396Z,94482.84
2022-11-05T18:48:23.266Z,94481.88
2022-11-05T18:50:50.059Z,94476.50
2022-11-05T18:53:16.965Z,94475.56
2022-11-05T18:55:51.126Z,94477.88
2022-11-05T18:58:20.781Z,94471.31
2022-11-05T19:00:48.772Z,94484.47
2022-11-05T19:03:15.933Z,94480.22
2022-11-05T19:05:42.881Z,94483.44
2022-11-05T19:08:11.940Z,94482.28
2022-11-05T19:10:41.157Z,94489.38
2022-11-05T19:13:18.730Z,94479.41
2022-11-05T19:15:45.723Z,94471.78
2022-11-05T19:18:13.552Z,94489.03
2022-11-05T19:20:40.615Z,94484.94
2022-11-05T19:23:09.967Z,94485.13
2022-11-05T19:25:40.395Z,94475.84
2022-11-05T19:28:08.362Z,94491.66
2022-11-05T19:30:35.386Z,94481.53
2022-11-05T19:33:02.357Z,94494.94
2022-11-05T19:35:34.663Z,94489.16
2022-11-05T19:38:08.067Z,94472.41
2022-11-05T19:40:39.928Z,94496.13
2022-11-05T19:43:07.478Z,94484.63
2022-11-05T19:45:49.572Z,94493.88
2022-11-05T19:48:19.781Z,94482.31
2022-11-05T19:50:47.448Z,94495.16
2022-11-05T19:53:14.371Z,94474.44
2022-11-05T19:55:41.690Z,94486.50
2022-11-05T19:58:10.404Z,94487.47
2022-11-05T20:00:41.148Z,94502.00
2022-11-05T20:03:11.153Z,94504.94
2022-11-05T20:05:40.056Z,94512.16
2022-11-05T20:08:09.525Z,94515.94
2022-11-05T20:10:39.646Z,94502.47
2022-11-05T20:13:06.676Z,94507.69
2022-11-05T20:15:39.002Z,94508.03
2022-11-05T20:18:07.984Z,94475.88
2022-11-05T20:20:35.762Z,94507.31
2022-11-05T20:23:02.972Z,94499.63
2022-11-05T20:25:37.371Z,94508.34
2022-11-05T20:28:14.007Z,94511.22
2022-11-05T20:30:41.703Z,94509.66
2022-11-05T20:33:09.033Z,94514.84
2022-11-05T20:35:41.874Z,94514.91
2022-11-05T20:38:10.047Z,94513.22
2022-11-05T20:40:40.170Z,94510.53
2022-11-05T20:43:07.302Z,94514.56
2022-11-05T20:45:34.397Z,94515.34
2022-11-05T20:48:01.349Z,94510.16
2022-11-05T20:50:29.045Z,94502.94
2022-11-05T20:52:56.350Z,94485.53
2022-11-05T20:55:23.303Z,94504.56
2022-11-05T20:57:50.259Z,94515.84
2022-11-05T21:00:19.756Z,94506.78
2022-11-05T21:02:46.771Z,94531.63
2022-11-05T21:05:13.800Z,94524.03
2022-11-05T21:07:42.550Z,94525.81
2022-11-05T21:10:12.670Z,94536.81
2022-11-05T21:12:40.047Z,94526.16
2022-11-05T21:15:07.756Z,94528.06
2022-11-05T21:17:35.589Z,94509.22
2022-11-05T21:20:02.855Z,94523.69
2022-11-05T21:22:34.050Z,94525.41
2022-11-05T21:25:02.572Z,94500.78
2022-11-05T21:27:29.517Z,94530.97
2022-11-05T21:29:56.573Z,94514.84
2022-11-05T21:32:23.408Z,94519.69
2022-11-05T21:34:50.631Z,94525.41
2022-11-05T21:37:20.558Z,94515.75
2022-11-05T21:39:47.449Z,94520.63
2022-11-05T21:42:14.365Z,94498.75
2022-11-05T21:44:41.354Z,94515.94
2022-11-05T21:47:10.180Z,94516.63
2022-11-05T21:49:41.033Z,94501.22
2022-11-05T21:52:26.455Z,94514.91
2022-11-05T21:55:13.379Z,94528.19
2022-11-05T21:58:01.993Z,94524.59
2022-11-05T22:00:30.361Z,94521.72
2022-11-05T22:03:00.206Z,94498.00
2022-11-05T22:05:30.475Z,94517.50
2022-11-05T22:07:57.845Z,94506.63
2022-11-05T22:10:24.782Z,94520.56
2022-11-05T22:12:54.149Z,94520.75
2022-11-05T22:15:21.178Z,94528.81
2022-11-05T22:17:50.708Z,94510.47
2022-11-05T22:20:17.822Z,94508.28
2022-11-05T22:22:45.038Z,94522.75
2022-11-05T22:25:13.589Z,94526.31
2022-11-05T22:27:40.410Z,94509.44
2022-11-05T22:30:10.185Z,94524.41
2022-11-05T22:32:39.104Z,94526.44
2022-11-05T22:35:06.795Z,94526.38
2022-11-05T22:37:33.587Z,94527.41
2022-11-05T22:40:00.295Z,94510.19
2022-11-05T22:42:27.158Z,94519.50
2022-11-05T22:44:54.732Z,94507.16
2022-11-05T22:47:21.887Z,94510.91
2022-11-05T22:49:50.357Z,94518.75
2022-11-05T22:52:17.333Z,94518.50
2022-11-05T22:54:44.501Z,94515.41
2022-11-05T22:57:11.331Z,94508.41
2022-11-05T22:59:38.128Z,94509.31
2022-11-05T23:02:09.456Z,94528.56
2022-11-05T23:04:37.267Z,94530.88
2022-11-05T23:07:27.311Z,94510.78
2022-11-05T23:10:14.077Z,94520.28
2022-11-05T23:12:43.358Z,94499.41
2022-11-05T23:15:30.725Z,94523.72
2022-11-05T23:18:16.163Z,94536.31
2022-11-05T23:21:01.677Z,94532.34
2022-11-05T23:23:47.312Z,94530.03
2022-11-05T23:26:33.018Z,94532.97
2022-11-05T23:28:59.910Z,94546.41
2022-11-05T23:31:45.077Z,94542.69
2022-11-05T23:34:11.831Z,94553.66
2022-11-05T23:36:57.169Z,94545.25
2022-11-05T23:39:23.995Z,94535.78
2022-11-05T23:42:09.222Z,94544.41
2022-11-05T23:44:54.218Z,94550.06
2022-11-05T23:47:39.688Z,94535.94
2022-11-05T23:50:06.643Z,94544.88
2022-11-05T23:52:33.420Z,94541.31
2022-11-05T23:55:00.094Z,94504.66
2022-11-05T23:57:26.931Z,94521.84
2022-11-05T23:59:53.552Z,94526.00
